createdAt,value
2019-02-15T00:00:11.143Z,0.4
2019-02-15T00:01:01.468Z,0.5
2019-02-15T00:01:51.508Z,0.4
2019-02-15T00:02:41.070Z,0.5
2019-02-15T00:03:31.648Z,0.5
2019-02-15T00:04:21.436Z,0.5
2019-02-15T00:05:11.458Z,0.5
2019-02-15T00:06:01.526Z,0.5
2019-02-15T00:06:51.582Z,0.5
2019-02-15T00:07:41.909Z,0.6
2019-02-15T00:08:31.682Z,0.6
2019-02-15T00:09:21.566Z,0.5
2019-02-15T00:10:11.802Z,0.6
2019-02-15T00:11:01.592Z,0.6
2019-02-15T00:11:51.975Z,0.6
2019-02-15T00:12:42.280Z,0.6
2019-02-15T00:13:32.026Z,0.6
2019-02-15T00:14:22.100Z,0.6
2019-02-15T00:15:12.414Z,0.6
2019-02-15T00:16:01.922Z,0.6
2019-02-15T00:16:52.299Z,0.6
2019-02-15T00:17:42.317Z,0.6
2019-02-15T00:18:32.532Z,0.6
2019-02-15T00:19:22.709Z,0.6
2019-02-15T00:20:12.484Z,0.6
2019-02-15T00:21:02.827Z,0.6
2019-02-15T00:21:52.324Z,0.6
2019-02-15T00:22:42.664Z,0.6
2019-02-15T00:23:32.428Z,0.6
2019-02-15T00:24:23.051Z,0.6
2019-02-15T00:25:12.833Z,0.6
2019-02-15T00:26:02.880Z,0.6
2019-02-15T00:26:53.226Z,0.6
2019-02-15T00:27:42.722Z,0.6
2019-02-15T00:28:33.328Z,0.6
2019-02-15T00:29:23.386Z,0.6
2019-02-15T00:30:13.163Z,0.6
2019-02-15T00:31:03.234Z,0.6
2019-02-15T00:31:53.334Z,0.6
2019-02-15T00:32:43.341Z,0.6
2019-02-15T00:33:33.391Z,0.6
2019-02-15T00:34:23.776Z,0.6
2019-02-15T00:35:13.503Z,0.6
2019-02-15T00:36:03.868Z,0.6
2019-02-15T00:36:53.618Z,0.6
2019-02-15T00:37:43.953Z,0.6
2019-02-15T00:38:33.721Z,0.6
2019-02-15T00:39:23.798Z,0.6
2019-02-15T00:40:13.300Z,0.6
2019-02-15T00:41:03.347Z,0.6
2019-02-15T00:41:54.256Z,0.6
2019-02-15T00:42:44.025Z,0.6
2019-02-15T00:43:33.527Z,0.6
2019-02-15T00:44:24.123Z,0.6
2019-02-15T00:45:13.662Z,0.6
2019-02-15T00:46:03.700Z,0.6
2019-02-15T00:46:54.302Z,0.6
2019-02-15T00:47:44.080Z,0.6
2019-02-15T00:48:34.430Z,0.6
2019-02-15T00:49:24.532Z,0.6
2019-02-15T00:50:14.524Z,0.6
2019-02-15T00:51:04.586Z,0.5
2019-02-15T00:51:54.640Z,0.6
2019-02-15T00:52:44.419Z,0.5
2019-02-15T00:53:35.044Z,0.5
2019-02-15T00:54:24.807Z,0.5
2019-02-15T00:55:15.144Z,0.5
2019-02-15T00:56:05.212Z,0.5
2019-02-15T00:56:55.259Z,0.5
2019-02-15T00:57:45.054Z,0.5
2019-02-15T00:58:35.087Z,0.5
2019-02-15T00:59:25.511Z,0.5
2019-02-15T01:00:15.204Z,0.5
2019-02-15T01:01:05.604Z,0.5
2019-02-15T01:01:54.509Z,0.5
2019-02-15T01:02:45.381Z,0.5
2019-02-15T01:03:35.179Z,0.5
2019-02-15T01:04:25.508Z,0.5
2019-02-15T01:05:15.285Z,0.4
2019-02-15T01:06:05.604Z,0.4
2019-02-15T01:06:55.669Z,0.4
2019-02-15T01:07:45.466Z,0.4
2019-02-15T01:08:35.781Z,0.4
2019-02-15T01:09:25.909Z,0.4
2019-02-15T01:10:15.951Z,0.4
2019-02-15T01:11:06.006Z,0.4
2019-02-15T01:11:56.019Z,0.4
2019-02-15T01:12:45.793Z,0.4
2019-02-15T01:13:36.137Z,0.4
2019-02-15T01:14:26.463Z,0.4
2019-02-15T01:15:16.239Z,0.4
2019-02-15T01:16:06.302Z,0.4
2019-02-15T01:16:56.623Z,0.4
2019-02-15T01:17:46.421Z,0.4
2019-02-15T01:18:36.746Z,0.4
2019-02-15T01:19:26.532Z,0.4
2019-02-15T01:20:16.591Z,0.4
2019-02-15T01:21:06.628Z,0.4
2019-02-15T01:21:56.978Z,0.4
2019-02-15T01:22:46.789Z,0.4
2019-02-15T01:23:36.824Z,0.4
2019-02-15T01:24:26.888Z,0.4
2019-02-15T01:25:17.199Z,0.4
2019-02-15T01:26:06.745Z,0.4
2019-02-15T01:26:57.033Z,0.4
2019-02-15T01:27:47.095Z,0.4
2019-02-15T01:28:37.423Z,0.4
2019-02-15T01:29:27.217Z,0.4
2019-02-15T01:30:17.008Z,0.4
2019-02-15T01:31:07.339Z,0.4
2019-02-15T01:31:57.656Z,0.4
2019-02-15T01:32:47.456Z,0.4
2019-02-15T01:33:37.758Z,0.4
2019-02-15T01:34:27.558Z,0.4
2019-02-15T01:35:17.603Z,0.4
2019-02-15T01:36:07.960Z,0.4
2019-02-15T01:36:57.990Z,0.4
2019-02-15T01:37:48.075Z,0.4
2019-02-15T01:38:37.844Z,0.4
2019-02-15T01:39:27.627Z,0.4
2019-02-15T01:40:17.952Z,0.4
2019-02-15T01:41:08.282Z,0.4
2019-02-15T01:41:58.355Z,0.4
2019-02-15T01:42:47.831Z,0.4
2019-02-15T01:43:42.787Z,0.4
2019-02-15T01:44:28.261Z,0.4
2019-02-15T01:45:18.037Z,0.4
2019-02-15T01:46:08.632Z,0.4
2019-02-15T01:46:58.957Z,0.4
2019-02-15T01:47:48.204Z,0.4
2019-02-15T01:48:38.521Z,0.4
2019-02-15T01:49:28.632Z,0.4
2019-02-15T01:50:18.366Z,0.4
2019-02-15T01:51:08.702Z,0.4
2019-02-15T01:51:59.081Z,0.4
2019-02-15T01:52:48.841Z,0.4
2019-02-15T01:53:39.227Z,0.4
2019-02-15T01:54:29.203Z,0.4
2019-02-15T01:55:19.286Z,0.4
2019-02-15T01:56:08.841Z,0.4
2019-02-15T01:56:58.846Z,0.3
2019-02-15T01:57:49.156Z,0.4
2019-02-15T01:58:39.493Z,0.4
2019-02-15T01:59:29.551Z,0.3
2019-02-15T02:00:19.068Z,0.3
2019-02-15T02:01:09.108Z,0.3
2019-02-15T02:01:59.458Z,0.3
2019-02-15T02:02:49.768Z,0.3
2019-02-15T02:03:39.553Z,0.3
2019-02-15T02:04:29.603Z,0.3
2019-02-15T02:05:19.705Z,0.3
2019-02-15T02:06:09.780Z,0.3
2019-02-15T02:06:59.798Z,0.3
2019-02-15T02:07:49.832Z,0.3
2019-02-15T02:08:40.202Z,0.3
2019-02-15T02:09:29.691Z,0.3
2019-02-15T02:10:20.047Z,0.3
2019-02-15T02:11:10.121Z,0.3
2019-02-15T02:11:59.907Z,0.3
2019-02-15T02:12:50.202Z,0.3
2019-02-15T02:13:50.055Z,0.3
2019-02-15T02:14:30.607Z,0.3
2019-02-15T02:15:20.660Z,0.3
2019-02-15T02:16:10.151Z,0.3
2019-02-15T02:17:00.479Z,0.3
2019-02-15T02:17:50.862Z,0.3
2019-02-15T02:18:40.889Z,0.3
2019-02-15T02:19:30.919Z,0.3
2019-02-15T02:20:20.979Z,0.3
2019-02-15T02:21:10.498Z,0.3
2019-02-15T02:22:00.825Z,0.3
2019-02-15T02:22:51.209Z,0.3
2019-02-15T02:23:40.389Z,0.3
2019-02-15T02:24:30.979Z,0.3
2019-02-15T02:25:20.829Z,0.3
2019-02-15T02:26:11.103Z,0.3
2019-02-15T02:27:01.230Z,0.3
2019-02-15T02:27:51.244Z,0.3
2019-02-15T02:28:41.556Z,0.3
2019-02-15T02:29:31.380Z,0.3
2019-02-15T02:30:21.685Z,0.3
2019-02-15T02:31:11.458Z,0.3
2019-02-15T02:32:01.810Z,0.3
2019-02-15T02:32:51.869Z,0.3
2019-02-15T02:33:41.885Z,0.3
2019-02-15T02:34:31.408Z,0.3
2019-02-15T02:35:21.871Z,0.3
2019-02-15T02:36:11.813Z,0.3
2019-02-15T02:37:01.889Z,0.3
2019-02-15T02:37:52.186Z,0.3
2019-02-15T02:38:41.987Z,0.3
2019-02-15T02:39:32.350Z,0.3
2019-02-15T02:40:22.128Z,0.3
2019-02-15T02:41:12.165Z,0.3
2019-02-15T02:42:02.220Z,0.4
2019-02-15T02:42:52.600Z,0.4
2019-02-15T02:43:42.346Z,0.3
2019-02-15T02:44:32.373Z,0.4
2019-02-15T02:45:22.713Z,0.4
2019-02-15T02:46:12.495Z,0.4
2019-02-15T02:47:02.565Z,0.3
2019-02-15T02:47:52.871Z,0.3
2019-02-15T02:48:42.704Z,0.3
2019-02-15T02:49:32.730Z,0.4
2019-02-15T02:50:23.077Z,0.4
2019-02-15T02:51:13.132Z,0.4
2019-02-15T02:52:03.174Z,0.4
2019-02-15T02:52:53.256Z,0.4
2019-02-15T02:53:43.025Z,0.4
2019-02-15T02:54:33.458Z,0.4
2019-02-15T02:55:22.930Z,0.4
2019-02-15T02:56:13.182Z,0.4
2019-02-15T02:57:03.240Z,0.4
2019-02-15T02:57:53.584Z,0.4
2019-02-15T02:58:43.404Z,0.4
2019-02-15T02:59:33.434Z,0.4
2019-02-15T03:00:34.022Z,0.4
2019-02-15T03:01:13.867Z,0.4
2019-02-15T03:02:03.896Z,0.4
2019-02-15T03:02:53.918Z,0.4
2019-02-15T03:03:44.072Z,0.4
2019-02-15T03:04:33.517Z,0.4
2019-02-15T03:08:07.120Z,0.4
2019-02-15T03:08:56.599Z,0.4
2019-02-15T03:09:47.011Z,0.4
2019-02-15T03:10:36.756Z,0.4
2019-02-15T03:11:26.530Z,0.4
2019-02-15T03:12:16.841Z,0.4
2019-02-15T03:13:07.452Z,0.4
2019-02-15T03:13:57.253Z,0.4
2019-02-15T03:14:47.554Z,0.4
2019-02-15T03:15:37.594Z,0.4
2019-02-15T03:16:27.403Z,0.4
2019-02-15T03:17:17.188Z,0.4
2019-02-15T03:18:07.821Z,0.4
2019-02-15T03:18:57.577Z,0.4
2019-02-15T03:19:47.626Z,0.4
2019-02-15T03:20:38.000Z,0.4
2019-02-15T03:21:27.208Z,0.4
2019-02-15T03:22:17.818Z,0.4
2019-02-15T03:23:07.910Z,0.4
2019-02-15T03:23:58.178Z,0.4
2019-02-15T03:24:48.051Z,0.4
2019-02-15T03:25:38.339Z,0.4
2019-02-15T03:26:28.128Z,0.4
2019-02-15T03:27:18.198Z,0.4
2019-02-15T03:28:08.210Z,0.4
2019-02-15T03:28:58.566Z,0.4
2019-02-15T03:29:48.308Z,0.4
2019-02-15T03:30:38.813Z,0.4
2019-02-15T03:31:28.682Z,0.4
2019-02-15T03:32:18.658Z,0.4
2019-02-15T03:33:09.034Z,0.4
2019-02-15T03:33:58.770Z,0.4
2019-02-15T03:34:48.385Z,0.4
2019-02-15T03:35:39.006Z,0.4
2019-02-15T03:36:28.938Z,0.4
2019-02-15T03:37:19.120Z,0.4
2019-02-15T03:38:09.173Z,0.4
2019-02-15T03:38:58.972Z,0.4
2019-02-15T03:39:49.289Z,0.4
2019-02-15T03:40:39.361Z,0.4
2019-02-15T03:41:29.170Z,0.4
2019-02-15T03:42:19.471Z,0.4
2019-02-15T03:43:09.545Z,0.4
2019-02-15T03:43:59.036Z,0.4
2019-02-15T03:44:49.680Z,0.4
2019-02-15T03:45:39.795Z,0.4
2019-02-15T03:46:29.502Z,0.4
2019-02-15T03:47:19.519Z,0.4
2019-02-15T03:48:09.056Z,0.4
2019-02-15T03:48:59.671Z,0.4
2019-02-15T03:49:49.757Z,0.4
2019-02-15T03:50:40.060Z,0.4
2019-02-15T03:51:30.139Z,0.4
2019-02-15T03:52:20.160Z,0.4
2019-02-15T03:53:09.972Z,0.4
2019-02-15T03:53:59.729Z,0.4
2019-02-15T03:54:49.795Z,0.4
2019-02-15T03:55:40.176Z,0.4
2019-02-15T03:56:30.147Z,0.4
2019-02-15T03:57:20.551Z,0.4
2019-02-15T03:58:09.778Z,0.4
2019-02-15T03:59:00.637Z,0.4
2019-02-15T03:59:50.673Z,0.4
2019-02-15T04:00:40.739Z,0.4
2019-02-15T04:01:30.292Z,0.4
2019-02-15T04:02:20.596Z,0.4
2019-02-15T04:03:10.402Z,0.4
2019-02-15T04:04:00.404Z,0.4
2019-02-15T04:04:50.744Z,0.4
2019-02-15T04:05:40.819Z,0.4
2019-02-15T04:06:30.676Z,0.4
2019-02-15T04:07:20.983Z,0.4
2019-02-15T04:08:10.443Z,0.4
2019-02-15T04:09:01.391Z,0.4
2019-02-15T04:09:51.397Z,0.4
2019-02-15T04:10:41.423Z,0.4
2019-02-15T04:11:31.097Z,0.4
2019-02-15T04:12:21.550Z,0.4
2019-02-15T04:13:11.599Z,0.4
2019-02-15T04:14:01.398Z,0.4
2019-02-15T04:14:51.442Z,0.4
2019-02-15T04:15:41.481Z,0.4
2019-02-15T04:16:31.537Z,0.4
2019-02-15T04:17:21.879Z,0.4
2019-02-15T04:18:11.693Z,0.4
2019-02-15T04:19:01.447Z,0.4
2019-02-15T04:19:51.750Z,0.4
2019-02-15T04:20:41.577Z,0.4
2019-02-15T04:21:31.919Z,0.4
2019-02-15T04:22:21.951Z,0.4
2019-02-15T04:23:12.002Z,0.4
2019-02-15T04:24:02.352Z,0.4
2019-02-15T04:24:52.385Z,0.4
2019-02-15T04:25:42.374Z,0.4
2019-02-15T04:26:32.239Z,0.4
2019-02-15T04:27:22.572Z,0.4
2019-02-15T04:28:12.704Z,0.4
2019-02-15T04:29:02.434Z,0.4
2019-02-15T04:29:52.192Z,0.4
2019-02-15T04:30:42.604Z,0.4
2019-02-15T04:31:32.626Z,0.4
2019-02-15T04:32:22.904Z,0.4
2019-02-15T04:33:12.698Z,0.4
2019-02-15T04:34:03.033Z,0.4
2019-02-15T04:34:53.080Z,0.4
2019-02-15T04:35:42.610Z,0.4
2019-02-15T04:36:32.921Z,0.4
2019-02-15T04:37:22.740Z,0.4
2019-02-15T04:38:13.034Z,0.4
2019-02-15T04:39:03.103Z,0.4
2019-02-15T04:39:53.161Z,0.4
2019-02-15T04:40:42.695Z,0.4
2019-02-15T04:41:33.326Z,0.4
2019-02-15T04:42:23.630Z,0.4
2019-02-15T04:43:13.386Z,0.3
2019-02-15T04:44:03.736Z,0.4
2019-02-15T04:44:53.751Z,0.3
2019-02-15T04:45:43.296Z,0.3
2019-02-15T04:46:33.924Z,0.4
2019-02-15T04:47:23.158Z,0.3
2019-02-15T04:48:14.015Z,0.3
2019-02-15T04:49:03.518Z,0.3
2019-02-15T04:49:53.633Z,0.3
2019-02-15T04:50:43.958Z,0.3
2019-02-15T04:51:33.943Z,0.3
2019-02-15T04:52:24.314Z,0.3
2019-02-15T04:53:14.356Z,0.3
2019-02-15T04:54:04.387Z,0.3
2019-02-15T04:54:54.470Z,0.3
2019-02-15T04:55:44.560Z,0.3
2019-02-15T04:56:34.336Z,0.3
2019-02-15T04:57:24.357Z,0.3
2019-02-15T04:58:14.120Z,0.3
2019-02-15T04:59:04.474Z,0.3
2019-02-15T04:59:54.539Z,0.3
2019-02-15T05:00:44.604Z,0.3
2019-02-15T05:01:34.898Z,0.3
2019-02-15T05:02:24.700Z,0.3
2019-02-15T05:03:15.075Z,0.3
2019-02-15T05:04:05.081Z,0.3
2019-02-15T05:04:55.187Z,0.3
2019-02-15T05:05:44.682Z,0.3
2019-02-15T05:06:34.765Z,0.3
2019-02-15T05:07:24.205Z,0.3
2019-02-15T05:08:15.136Z,0.3
2019-02-15T05:09:05.178Z,0.3
2019-02-15T05:09:54.935Z,0.3
2019-02-15T05:10:45.375Z,0.3
2019-02-15T05:11:35.383Z,0.3
2019-02-15T05:12:25.121Z,0.3
2019-02-15T05:13:15.509Z,0.3
2019-02-15T05:14:05.486Z,0.3
2019-02-15T05:14:55.580Z,0.3
2019-02-15T05:15:45.881Z,0.3
2019-02-15T05:16:35.952Z,0.3
2019-02-15T05:17:25.726Z,0.2
2019-02-15T05:18:15.503Z,0.3
2019-02-15T05:19:05.342Z,0.3
2019-02-15T05:19:55.881Z,0.2
2019-02-15T05:20:46.227Z,0.3
2019-02-15T05:21:36.271Z,0.2
2019-02-15T05:22:26.333Z,0.3
2019-02-15T05:23:15.893Z,0.2
2019-02-15T05:24:06.458Z,0.2
2019-02-15T05:24:56.247Z,0.2
2019-02-15T05:25:46.312Z,0.2
2019-02-15T05:26:36.345Z,0.2
2019-02-15T05:27:25.896Z,0.2
2019-02-15T05:28:16.465Z,0.2
2019-02-15T05:29:06.838Z,0.2
2019-02-15T05:29:56.856Z,0.2
2019-02-15T05:30:46.651Z,0.2
2019-02-15T05:31:36.707Z,0.2
2019-02-15T05:32:27.045Z,0.2
2019-02-15T05:33:16.520Z,0.2
2019-02-15T05:34:07.153Z,0.2
2019-02-15T05:34:56.661Z,0.2
2019-02-15T05:35:47.000Z,0.2
2019-02-15T05:36:37.357Z,0.2
2019-02-15T05:37:27.142Z,0.2
2019-02-15T05:38:17.440Z,0.2
2019-02-15T05:39:07.462Z,0.2
2019-02-15T05:39:56.998Z,0.2
2019-02-15T05:40:47.597Z,0.2
2019-02-15T05:41:37.681Z,0.2
2019-02-15T05:42:27.454Z,0.2
2019-02-15T05:43:17.226Z,0.2
2019-02-15T05:44:07.840Z,0.2
2019-02-15T05:45:06.859Z,0.2
2019-02-15T05:45:47.372Z,0.2
2019-02-15T05:46:38.019Z,0.2
2019-02-15T05:47:28.062Z,0.2
2019-02-15T05:48:18.149Z,0.2
2019-02-15T05:49:07.925Z,0.2
2019-02-15T05:49:57.955Z,0.2
2019-02-15T05:50:48.022Z,0.2
2019-02-15T05:51:38.067Z,0.2
2019-02-15T05:52:27.816Z,0.2
2019-02-15T05:53:18.434Z,0.2
2019-02-15T05:54:08.497Z,0.2
2019-02-15T05:54:58.021Z,0.2
2019-02-15T05:55:48.074Z,0.2
2019-02-15T05:56:38.745Z,0.2
2019-02-15T05:57:28.439Z,0.2
2019-02-15T05:58:18.519Z,0.3
2019-02-15T05:59:08.318Z,0.3
2019-02-15T05:59:58.899Z,0.2
2019-02-15T06:00:48.736Z,0.2
2019-02-15T06:01:38.509Z,0.2
2019-02-15T06:02:28.553Z,0.2
2019-02-15T06:03:18.858Z,0.2
2019-02-15T06:04:08.913Z,0.2
2019-02-15T06:06:06.702Z,0.2
2019-02-15T06:06:57.026Z,0.2
2019-02-15T06:07:47.076Z,0.2
2019-02-15T06:08:37.176Z,0.2
2019-02-15T06:09:26.919Z,0.2
2019-02-15T06:10:17.243Z,0.2
2019-02-15T06:11:10.506Z,0.3
2019-02-15T06:11:57.090Z,0.2
2019-02-15T06:12:47.590Z,0.2
2019-02-15T06:13:37.189Z,0.3
2019-02-15T06:14:27.248Z,0.3
2019-02-15T06:15:18.017Z,0.3
2019-02-15T06:16:07.373Z,0.3
2019-02-15T06:16:57.408Z,0.3
2019-02-15T06:17:47.780Z,0.3
2019-02-15T06:18:37.812Z,0.3
2019-02-15T06:19:27.038Z,0.3
2019-02-15T06:20:17.948Z,0.3
2019-02-15T06:21:07.952Z,0.3
2019-02-15T06:21:58.027Z,0.3
2019-02-15T06:22:48.075Z,0.3
2019-02-15T06:23:38.150Z,0.3
2019-02-15T06:24:27.910Z,0.3
2019-02-15T06:25:17.775Z,0.3
2019-02-15T06:26:08.017Z,0.3
2019-02-15T06:26:58.382Z,0.3
2019-02-15T06:27:48.602Z,0.3
2019-02-15T06:28:38.526Z,0.3
2019-02-15T06:29:28.270Z,0.3
2019-02-15T06:30:18.604Z,0.3
2019-02-15T06:31:08.453Z,0.3
2019-02-15T06:31:58.421Z,0.3
2019-02-15T06:32:48.746Z,0.3
2019-02-15T06:33:38.021Z,0.3
2019-02-15T06:34:28.301Z,0.3
2019-02-15T06:35:18.384Z,0.3
2019-02-15T06:36:08.724Z,0.3
2019-02-15T06:36:59.054Z,0.3
2019-02-15T06:37:49.106Z,0.4
2019-02-15T06:38:38.891Z,0.4
2019-02-15T06:39:29.213Z,0.4
2019-02-15T06:40:18.998Z,0.4
2019-02-15T06:41:09.121Z,0.4
2019-02-15T06:41:59.393Z,0.4
2019-02-15T06:42:49.511Z,0.4
2019-02-15T06:43:39.513Z,0.4
2019-02-15T06:44:28.998Z,0.4
2019-02-15T06:45:27.670Z,0.4
2019-02-15T06:46:09.404Z,0.5
2019-02-15T06:46:59.728Z,0.5
2019-02-15T06:47:49.832Z,0.5
2019-02-15T06:48:39.602Z,0.6
2019-02-15T06:49:29.906Z,0.6
2019-02-15T06:50:19.490Z,0.6
2019-02-15T06:51:09.786Z,0.7
2019-02-15T06:52:00.120Z,0.7
2019-02-15T06:52:49.864Z,0.7
2019-02-15T06:53:39.934Z,0.8
2019-02-15T06:54:29.958Z,0.8
2019-02-15T06:55:20.015Z,0.8
2019-02-15T06:56:10.375Z,0.8
2019-02-15T06:57:00.405Z,0.8
2019-02-15T06:57:50.485Z,0.9
2019-02-15T06:58:47.974Z,0.9
2019-02-15T06:59:30.300Z,0.9
2019-02-15T07:00:20.086Z,0.9
2019-02-15T07:01:10.699Z,1
2019-02-15T07:02:00.467Z,1
2019-02-15T07:02:50.276Z,1
2019-02-15T07:03:42.390Z,1
2019-02-15T07:06:06.025Z,1.1
2019-02-15T07:06:56.599Z,1.1
2019-02-15T07:07:47.009Z,1.1
2019-02-15T07:08:36.779Z,1.1
2019-02-15T07:09:26.889Z,1.2
2019-02-15T07:10:16.618Z,1.2
2019-02-15T07:11:06.959Z,1.2
2019-02-15T07:11:57.399Z,1.3
2019-02-15T07:12:47.061Z,1.3
2019-02-15T07:13:36.842Z,1.3
2019-02-15T07:14:27.507Z,1.4
2019-02-15T07:15:17.531Z,1.4
2019-02-15T07:16:07.281Z,1.5
2019-02-15T07:16:57.613Z,1.6
2019-02-15T07:17:47.399Z,1.6
2019-02-15T07:18:37.466Z,1.8
2019-02-15T07:19:56.824Z,1.9
2019-02-15T07:20:17.578Z,1.9
2019-02-15T07:21:07.589Z,2
2019-02-15T07:22:12.356Z,2.1
2019-02-15T07:22:48.052Z,2.2
2019-02-15T07:23:38.068Z,2.3
2019-02-15T07:24:27.573Z,2.4
2019-02-15T07:25:18.175Z,2.5
2019-02-15T07:26:23.062Z,2.6
2019-02-15T07:26:58.177Z,2.8
2019-02-15T07:27:48.258Z,2.8
2019-02-15T07:28:38.412Z,2.9
2019-02-15T07:29:28.445Z,3
2019-02-15T07:30:18.588Z,3.1
2019-02-15T07:31:08.608Z,3.2
2019-02-15T07:31:58.369Z,3.4
2019-02-15T07:32:48.683Z,3.4
2019-02-15T07:33:38.458Z,3.6
2019-02-15T07:35:33.257Z,3.9
2019-02-15T07:36:09.460Z,4
2019-02-15T07:36:59.106Z,4.1
2019-02-15T07:37:49.343Z,4.4
2019-02-15T07:38:39.145Z,4.4
2019-02-15T07:39:44.256Z,4.6
2019-02-15T07:40:18.932Z,4.8
2019-02-15T07:41:09.636Z,5
2019-02-15T07:42:13.703Z,5.1
2019-02-15T07:42:49.355Z,5.3
2019-02-15T07:43:39.464Z,5.5
2019-02-15T07:44:29.132Z,5.6
2019-02-15T07:45:19.939Z,5.7
2019-02-15T07:46:24.306Z,5.9
2019-02-15T07:46:59.749Z,5.9
2019-02-15T07:47:50.074Z,6
2019-02-15T07:48:39.775Z,6.1
2019-02-15T07:49:29.330Z,6.2
2019-02-15T07:50:19.886Z,6.3
2019-02-15T07:51:12.109Z,6.3
2019-02-15T07:52:54.516Z,6.4
2019-02-15T07:53:44.579Z,6.4
2019-02-15T07:54:34.387Z,6.4
2019-02-15T07:55:24.686Z,6.5
2019-02-15T07:56:14.762Z,6.6
2019-02-15T07:57:04.862Z,6.6
2019-02-15T07:57:54.598Z,6.7
2019-02-15T07:58:44.668Z,6.7
2019-02-15T07:59:34.703Z,6.8
2019-02-15T08:00:25.320Z,6.8
2019-02-15T08:01:15.369Z,6.8
2019-02-15T08:02:05.428Z,6.8
2019-02-15T08:02:55.251Z,6.8
2019-02-15T08:03:45.531Z,6.8
2019-02-15T08:04:35.584Z,6.8
2019-02-15T08:05:25.880Z,6.8
2019-02-15T08:06:15.728Z,6.9
2019-02-15T08:07:05.488Z,6.9
2019-02-15T08:07:55.048Z,6.9
2019-02-15T08:08:45.880Z,7
2019-02-15T08:09:35.963Z,7
2019-02-15T08:10:25.723Z,7
2019-02-15T08:11:16.058Z,7.1
2019-02-15T08:12:05.888Z,7.1
2019-02-15T08:12:55.900Z,7.1
2019-02-15T08:13:45.668Z,7.1
2019-02-15T08:14:36.288Z,7.1
2019-02-15T08:15:26.072Z,7.1
2019-02-15T08:16:16.387Z,7.2
2019-02-15T08:17:05.666Z,7.2
2019-02-15T08:17:55.965Z,7.2
2019-02-15T08:18:46.565Z,7.2
2019-02-15T08:19:36.625Z,7.3
2019-02-15T08:20:26.394Z,7.3
2019-02-15T08:21:16.209Z,7.3
2019-02-15T08:22:06.517Z,7.3
2019-02-15T08:22:56.862Z,7.2
2019-02-15T08:23:46.403Z,7.2
2019-02-15T08:24:36.435Z,7.2
2019-02-15T08:25:27.027Z,7.1
2019-02-15T08:26:17.067Z,7.1
2019-02-15T08:27:06.587Z,7.2
2019-02-15T08:27:56.654Z,7.2
2019-02-15T08:28:47.004Z,7.1
2019-02-15T08:29:37.031Z,7.1
2019-02-15T08:30:27.355Z,7.1
2019-02-15T08:31:16.602Z,7.1
2019-02-15T08:32:07.465Z,7.1
2019-02-15T08:32:57.251Z,7.1
2019-02-15T08:33:47.041Z,7.1
2019-02-15T08:34:37.646Z,7.1
2019-02-15T08:35:27.154Z,7.1
2019-02-15T08:36:17.476Z,7.1
2019-02-15T08:37:07.826Z,7.2
2019-02-15T08:37:57.623Z,7.2
2019-02-15T08:38:48.063Z,7.2
2019-02-15T08:39:37.452Z,7.2
2019-02-15T08:40:28.076Z,7.2
2019-02-15T08:41:17.833Z,7.2
2019-02-15T08:42:07.621Z,7.3
2019-02-15T08:42:57.966Z,7.3
2019-02-15T08:43:48.271Z,7.3
2019-02-15T08:44:38.411Z,7.4
2019-02-15T08:45:28.199Z,7.4
2019-02-15T08:46:17.901Z,7.4
2019-02-15T08:47:07.933Z,7.5
2019-02-15T08:47:58.580Z,7.5
2019-02-15T08:48:49.051Z,7.6
2019-02-15T08:49:38.365Z,7.6
2019-02-15T08:50:28.443Z,7.6
2019-02-15T08:51:18.490Z,7.7
2019-02-15T08:52:08.817Z,7.7
2019-02-15T08:52:58.605Z,7.7
2019-02-15T08:53:50.851Z,7.7
2019-02-15T08:54:38.471Z,7.8
2019-02-15T08:55:28.223Z,7.8
2019-02-15T08:56:18.545Z,7.8
2019-02-15T08:57:09.153Z,7.8
2019-02-15T08:57:58.693Z,7.8
2019-02-15T08:58:49.499Z,7.8
2019-02-15T08:59:38.810Z,7.8
2019-02-15T09:00:29.405Z,7.8
2019-02-15T09:01:19.177Z,7.8
2019-02-15T09:02:09.502Z,7.8
2019-02-15T09:02:59.277Z,7.9
2019-02-15T09:03:49.194Z,7.9
2019-02-15T09:04:39.682Z,7.9
2019-02-15T09:05:29.497Z,7.9
2019-02-15T09:06:19.791Z,7.9
2019-02-15T09:07:09.850Z,8
2019-02-15T09:07:59.359Z,8
2019-02-15T09:08:49.691Z,8
2019-02-15T09:09:39.742Z,8.1
2019-02-15T09:10:30.064Z,8.1
2019-02-15T09:11:19.600Z,8.1
2019-02-15T09:12:10.204Z,8.1
2019-02-15T09:13:00.012Z,8.1
2019-02-15T09:13:50.047Z,8.2
2019-02-15T09:14:39.799Z,8.2
2019-02-15T09:15:29.844Z,8.2
2019-02-15T09:16:20.176Z,8.3
2019-02-15T09:17:10.239Z,8.3
2019-02-15T09:18:00.079Z,8.4
2019-02-15T09:18:50.384Z,8.4
2019-02-15T09:19:40.416Z,8.5
2019-02-15T09:20:30.476Z,8.6
2019-02-15T09:21:20.552Z,8.6
2019-02-15T09:22:10.866Z,8.8
2019-02-15T09:23:00.644Z,8.9
2019-02-15T09:23:50.978Z,8.9
2019-02-15T09:24:41.046Z,9.1
2019-02-15T09:25:31.102Z,9.2
2019-02-15T09:26:21.186Z,9.4
2019-02-15T09:27:11.204Z,9.6
2019-02-15T09:28:00.981Z,9.8
2019-02-15T09:28:51.346Z,10
2019-02-15T09:29:41.096Z,10.2
2019-02-15T09:30:31.150Z,10.5
2019-02-15T09:31:20.990Z,10.8
2019-02-15T09:32:10.993Z,10.9
2019-02-15T09:33:01.613Z,11.1
2019-02-15T09:33:51.270Z,11.3
2019-02-15T09:34:41.783Z,11.5
2019-02-15T09:35:31.494Z,11.8
2019-02-15T09:36:21.574Z,12
2019-02-15T09:37:11.930Z,12.3
2019-02-15T09:38:01.667Z,12.6
2019-02-15T09:38:52.007Z,13
2019-02-15T09:39:42.098Z,13.4
2019-02-15T09:40:32.118Z,13.9
2019-02-15T09:41:22.172Z,14.6
2019-02-15T09:42:12.218Z,15.3
2019-02-15T09:43:01.726Z,16.1
2019-02-15T09:43:52.357Z,17.2
2019-02-15T09:44:42.116Z,18.6
2019-02-15T09:45:34.127Z,20.4
2019-02-15T09:46:22.592Z,22.8
2019-02-15T09:47:12.570Z,24.9
2019-02-15T09:48:02.073Z,26.7
2019-02-15T09:49:47.061Z,28.9
2019-02-15T09:50:32.781Z,30.1
2019-02-15T09:51:22.609Z,30.8
2019-02-15T09:52:12.369Z,31.6
2019-02-15T09:53:02.712Z,32.3
2019-02-15T09:53:53.027Z,32.9
2019-02-15T09:54:43.134Z,33.4
2019-02-15T09:55:32.874Z,33.8
2019-02-15T09:56:23.206Z,34.4
2019-02-15T09:57:13.272Z,34.9
2019-02-15T09:58:02.891Z,35.1
2019-02-15T09:58:52.363Z,35.4
2019-02-15T09:59:43.188Z,35.4
2019-02-15T10:00:33.210Z,35.4
2019-02-15T10:01:23.555Z,35.4
2019-02-15T10:02:12.795Z,35.3
2019-02-15T10:03:03.147Z,35.1
2019-02-15T10:03:55.786Z,34.9
2019-02-15T10:04:43.801Z,34.9
2019-02-15T10:07:06.717Z,34.6
2019-02-15T10:07:56.494Z,34.6
2019-02-15T10:08:46.633Z,35
2019-02-15T10:09:36.906Z,35.7
2019-02-15T10:10:26.993Z,36.5
2019-02-15T10:11:16.992Z,37.1
2019-02-15T10:12:07.068Z,37.4
2019-02-15T10:12:56.575Z,37.6
2019-02-15T10:13:47.197Z,38.1
2019-02-15T10:14:36.952Z,38.6
2019-02-15T10:15:27.298Z,39.1
2019-02-15T10:16:17.150Z,39.4
2019-02-15T10:17:06.867Z,40
2019-02-15T10:17:56.420Z,40.2
2019-02-15T10:18:47.253Z,40.3
2019-02-15T10:19:37.635Z,40.2
2019-02-15T10:20:26.795Z,40.1
2019-02-15T10:21:17.695Z,40.1
2019-02-15T10:22:07.477Z,40.1
2019-02-15T10:22:57.552Z,39.9
2019-02-15T10:23:47.592Z,39.6
2019-02-15T10:24:37.974Z,39.4
2019-02-15T10:25:27.997Z,39.1
2019-02-15T10:26:17.754Z,38.9
2019-02-15T10:27:07.358Z,38.7
2019-02-15T10:27:57.673Z,38.6
2019-02-15T10:28:48.040Z,38.4
2019-02-15T10:29:38.265Z,38.2
2019-02-15T10:30:27.784Z,37.9
2019-02-15T10:31:18.112Z,37.8
2019-02-15T10:32:08.454Z,37.9
2019-02-15T10:32:58.547Z,38.2
2019-02-15T10:33:48.572Z,38.6
2019-02-15T10:34:38.609Z,38.9
2019-02-15T10:35:28.389Z,39.2
2019-02-15T10:36:20.396Z,39.3
2019-02-15T10:37:08.803Z,39.4
2019-02-15T10:37:58.291Z,39.6
2019-02-15T10:38:49.016Z,39.8
2019-02-15T10:39:38.682Z,39.9
2019-02-15T10:40:29.024Z,39.8
2019-02-15T10:41:19.081Z,39.4
2019-02-15T10:42:08.852Z,39.1
2019-02-15T10:42:59.189Z,38.6
2019-02-15T10:43:49.478Z,38.5
2019-02-15T10:44:38.747Z,38.3
2019-02-15T10:45:28.338Z,38
2019-02-15T10:46:18.938Z,37.7
2019-02-15T10:47:26.991Z,37.3
2019-02-15T10:47:59.031Z,36.9
2019-02-15T10:48:49.008Z,36.8
2019-02-15T10:49:39.408Z,36.5
2019-02-15T10:50:29.454Z,36.3
2019-02-15T10:51:19.808Z,36
2019-02-15T10:52:09.599Z,35.7
2019-02-15T10:52:59.878Z,35.4
2019-02-15T10:53:49.759Z,35
2019-02-15T10:54:39.990Z,34.7
2019-02-15T10:55:29.480Z,34.3
2019-02-15T10:56:19.889Z,33.9
2019-02-15T10:57:10.207Z,33.5
2019-02-15T10:58:00.240Z,33.1
2019-02-15T10:58:50.491Z,32.8
2019-02-15T10:59:40.146Z,32.6
2019-02-15T11:00:29.855Z,32.3
2019-02-15T11:01:19.923Z,31.9
2019-02-15T11:02:10.576Z,31.5
2019-02-15T11:03:00.572Z,31.2
2019-02-15T11:03:50.697Z,30.9
2019-02-15T11:04:42.055Z,30.7
2019-02-15T11:05:30.752Z,30.4
2019-02-15T11:06:20.792Z,30.1
2019-02-15T11:07:10.306Z,29.9
2019-02-15T11:08:00.688Z,29.8
2019-02-15T11:08:50.712Z,29.6
2019-02-15T11:09:41.032Z,29.6
2019-02-15T11:10:33.327Z,29.5
2019-02-15T11:11:20.885Z,29.5
2019-02-15T11:12:11.201Z,29.3
2019-02-15T11:13:01.252Z,29
2019-02-15T11:13:50.765Z,28.8
2019-02-15T11:14:41.122Z,28.6
2019-02-15T11:15:31.167Z,28.5
2019-02-15T11:16:21.501Z,28.6
2019-02-15T11:17:11.335Z,28.9
2019-02-15T11:18:01.674Z,29.2
2019-02-15T11:18:51.385Z,29.4
2019-02-15T11:19:41.471Z,29.6
2019-02-15T11:20:31.224Z,29.8
2019-02-15T11:21:21.865Z,29.9
2019-02-15T11:22:11.344Z,29.9
2019-02-15T11:23:01.699Z,29.8
2019-02-15T11:23:51.734Z,29.8
2019-02-15T11:24:42.071Z,29.6
2019-02-15T11:25:31.872Z,29.5
2019-02-15T11:26:27.399Z,29.3
2019-02-15T11:27:11.964Z,29.1
2019-02-15T11:28:02.316Z,28.9
2019-02-15T11:28:52.362Z,28.7
2019-02-15T11:29:42.185Z,28.6
2019-02-15T11:30:31.928Z,28.4
2019-02-15T11:31:22.536Z,28.1
2019-02-15T11:33:02.086Z,27.6
2019-02-15T11:33:52.703Z,27.3
2019-02-15T11:34:42.486Z,27.1
2019-02-15T11:35:32.823Z,26.9
2019-02-15T11:36:22.324Z,26.6